sensor_id;sensor_type;location;lat;lon;timestamp;temperature;humidity
28905;DHT22;60848;53.884;11.446;2022-12-07T00:02:15;7.70;60.90
28905;DHT22;60848;53.884;11.446;2022-12-07T00:04:44;7.70;61.10
28905;DHT22;60848;53.884;11.446;2022-12-07T00:07:12;7.60;61.30
28905;DHT22;60848;53.884;11.446;2022-12-07T00:09:40;7.60;61.60
28905;DHT22;60848;53.884;11.446;2022-12-07T00:12:10;7.60;61.50
28905;DHT22;60848;53.884;11.446;2022-12-07T00:14:39;7.60;61.70
28905;DHT22;60848;53.884;11.446;2022-12-07T00:17:07;7.50;61.80
28905;DHT22;60848;53.884;11.446;2022-12-07T00:19:35;7.60;62.00
28905;DHT22;60848;53.884;11.446;2022-12-07T00:22:04;7.60;62.00
28905;DHT22;60848;53.884;11.446;2022-12-07T00:24:32;7.60;62.20
28905;DHT22;60848;53.884;11.446;2022-12-07T00:27:01;7.60;62.40
28905;DHT22;60848;53.884;11.446;2022-12-07T00:29:33;7.50;62.50
28905;DHT22;60848;53.884;11.446;2022-12-07T00:32:03;7.50;62.60
28905;DHT22;60848;53.884;11.446;2022-12-07T00:34:32;7.60;62.70
28905;DHT22;60848;53.884;11.446;2022-12-07T00:37:00;7.60;62.70
28905;DHT22;60848;53.884;11.446;2022-12-07T00:39:29;7.60;62.60
28905;DHT22;60848;53.884;11.446;2022-12-07T00:41:57;7.60;62.60
28905;DHT22;60848;53.884;11.446;2022-12-07T00:44:26;7.70;62.70
28905;DHT22;60848;53.884;11.446;2022-12-07T00:46:56;7.70;62.50
28905;DHT22;60848;53.884;11.446;2022-12-07T00:49:24;7.80;62.20
28905;DHT22;60848;53.884;11.446;2022-12-07T00:51:53;7.90;62.10
28905;DHT22;60848;53.884;11.446;2022-12-07T00:54:23;7.90;62.20
28905;DHT22;60848;53.884;11.446;2022-12-07T00:56:52;7.90;62.10
28905;DHT22;60848;53.884;11.446;2022-12-07T00:59:22;8.10;61.90
28905;DHT22;60848;53.884;11.446;2022-12-07T01:01:59;8.10;61.80
28905;DHT22;60848;53.884;11.446;2022-12-07T01:04:30;8.00;61.90
28905;DHT22;60848;53.884;11.446;2022-12-07T01:06:58;7.90;61.90
28905;DHT22;60848;53.884;11.446;2022-12-07T01:09:26;7.90;62.20
28905;DHT22;60848;53.884;11.446;2022-12-07T01:11:55;7.80;62.40
28905;DHT22;60848;53.884;11.446;2022-12-07T01:14:23;7.80;62.30
28905;DHT22;60848;53.884;11.446;2022-12-07T01:16:52;7.80;62.40
28905;DHT22;60848;53.884;11.446;2022-12-07T01:19:21;7.90;62.40
28905;DHT22;60848;53.884;11.446;2022-12-07T01:21:50;8.00;62.30
28905;DHT22;60848;53.884;11.446;2022-12-07T01:24:18;7.90;62.30
28905;DHT22;60848;53.884;11.446;2022-12-07T01:26:49;8.00;62.50
28905;DHT22;60848;53.884;11.446;2022-12-07T01:29:20;8.10;62.40
28905;DHT22;60848;53.884;11.446;2022-12-07T01:31:48;8.10;62.30
28905;DHT22;60848;53.884;11.446;2022-12-07T01:34:17;8.10;62.30
28905;DHT22;60848;53.884;11.446;2022-12-07T01:36:47;8.10;62.30
28905;DHT22;60848;53.884;11.446;2022-12-07T01:39:16;8.10;62.40
28905;DHT22;60848;53.884;11.446;2022-12-07T01:41:44;8.10;62.30
28905;DHT22;60848;53.884;11.446;2022-12-07T01:44:18;8.20;62.50
28905;DHT22;60848;53.884;11.446;2022-12-07T01:46:48;8.20;62.60
28905;DHT22;60848;53.884;11.446;2022-12-07T01:49:28;8.20;63.20
28905;DHT22;60848;53.884;11.446;2022-12-07T01:52:10;8.20;63.80
28905;DHT22;60848;53.884;11.446;2022-12-07T01:54:44;8.40;63.80
28905;DHT22;60848;53.884;11.446;2022-12-07T01:57:15;8.50;63.40
28905;DHT22;60848;53.884;11.446;2022-12-07T01:59:45;8.60;63.20
28905;DHT22;60848;53.884;11.446;2022-12-07T02:02:19;8.70;63.10
28905;DHT22;60848;53.884;11.446;2022-12-07T02:04:52;8.80;63.20
28905;DHT22;60848;53.884;11.446;2022-12-07T02:07:23;8.90;63.00
28905;DHT22;60848;53.884;11.446;2022-12-07T02:09:52;9.00;62.80
28905;DHT22;60848;53.884;11.446;2022-12-07T02:12:21;9.10;62.70
28905;DHT22;60848;53.884;11.446;2022-12-07T02:14:50;9.10;62.50
28905;DHT22;60848;53.884;11.446;2022-12-07T02:17:24;9.10;62.50
28905;DHT22;60848;53.884;11.446;2022-12-07T02:20:11;9.20;62.50
28905;DHT22;60848;53.884;11.446;2022-12-07T02:23:05;9.20;62.40
28905;DHT22;60848;53.884;11.446;2022-12-07T02:25:55;9.30;62.40
28905;DHT22;60848;53.884;11.446;2022-12-07T02:28:28;9.30;62.40
28905;DHT22;60848;53.884;11.446;2022-12-07T02:31:06;9.40;62.40
28905;DHT22;60848;53.884;11.446;2022-12-07T02:33:41;9.40;62.40
28905;DHT22;60848;53.884;11.446;2022-12-07T02:36:16;9.40;62.40
28905;DHT22;60848;53.884;11.446;2022-12-07T02:38:50;9.40;62.50
28905;DHT22;60848;53.884;11.446;2022-12-07T02:41:22;9.30;62.40
28905;DHT22;60848;53.884;11.446;2022-12-07T02:43:55;9.30;62.70
28905;DHT22;60848;53.884;11.446;2022-12-07T02:46:29;9.30;62.80
28905;DHT22;60848;53.884;11.446;2022-12-07T02:48:58;9.30;62.80
28905;DHT22;60848;53.884;11.446;2022-12-07T02:51:31;9.40;62.80
28905;DHT22;60848;53.884;11.446;2022-12-07T02:54:00;9.40;62.80
28905;DHT22;60848;53.884;11.446;2022-12-07T02:56:38;9.40;62.70
28905;DHT22;60848;53.884;11.446;2022-12-07T02:59:17;9.40;62.60
28905;DHT22;60848;53.884;11.446;2022-12-07T03:01:57;9.40;63.30
28905;DHT22;60848;53.884;11.446;2022-12-07T03:04:38;9.50;62.60
28905;DHT22;60848;53.884;11.446;2022-12-07T03:07:24;9.50;62.60
28905;DHT22;60848;53.884;11.446;2022-12-07T03:10:00;9.40;62.70
28905;DHT22;60848;53.884;11.446;2022-12-07T03:12:35;9.50;62.70
28905;DHT22;60848;53.884;11.446;2022-12-07T03:15:10;9.50;62.70
28905;DHT22;60848;53.884;11.446;2022-12-07T03:17:43;9.40;62.80
28905;DHT22;60848;53.884;11.446;2022-12-07T03:20:14;9.40;63.10
28905;DHT22;60848;53.884;11.446;2022-12-07T03:22:47;9.50;63.10
28905;DHT22;60848;53.884;11.446;2022-12-07T03:25:16;9.40;63.10
28905;DHT22;60848;53.884;11.446;2022-12-07T03:27:49;9.50;63.30
28905;DHT22;60848;53.884;11.446;2022-12-07T03:30:22;9.50;63.40
28905;DHT22;60848;53.884;11.446;2022-12-07T03:32:56;9.40;63.40
28905;DHT22;60848;53.884;11.446;2022-12-07T03:35:28;9.40;63.60
28905;DHT22;60848;53.884;11.446;2022-12-07T03:38:02;9.50;63.80
28905;DHT22;60848;53.884;11.446;2022-12-07T03:40:39;9.50;63.70
28905;DHT22;60848;53.884;11.446;2022-12-07T03:43:08;9.60;63.60
28905;DHT22;60848;53.884;11.446;2022-12-07T03:45:40;9.60;63.40
28905;DHT22;60848;53.884;11.446;2022-12-07T03:48:17;9.60;63.50
28905;DHT22;60848;53.884;11.446;2022-12-07T03:50:54;9.60;63.40
28905;DHT22;60848;53.884;11.446;2022-12-07T03:53:28;9.70;63.20
28905;DHT22;60848;53.884;11.446;2022-12-07T03:56:02;9.70;63.10
28905;DHT22;60848;53.884;11.446;2022-12-07T03:58:32;9.70;63.00
28905;DHT22;60848;53.884;11.446;2022-12-07T04:01:01;9.70;62.90
28905;DHT22;60848;53.884;11.446;2022-12-07T04:03:31;9.70;62.80
28905;DHT22;60848;53.884;11.446;2022-12-07T04:05:59;9.70;62.80
28905;DHT22;60848;53.884;11.446;2022-12-07T04:08:28;9.70;62.80
28905;DHT22;60848;53.884;11.446;2022-12-07T04:10:56;9.80;62.90
28905;DHT22;60848;53.884;11.446;2022-12-07T04:13:24;9.80;62.70
28905;DHT22;60848;53.884;11.446;2022-12-07T04:15:53;9.80;62.70
28905;DHT22;60848;53.884;11.446;2022-12-07T04:18:21;9.80;62.60
28905;DHT22;60848;53.884;11.446;2022-12-07T04:20:51;9.90;62.60
28905;DHT22;60848;53.884;11.446;2022-12-07T04:23:20;9.80;62.50
28905;DHT22;60848;53.884;11.446;2022-12-07T04:25:48;9.80;62.60
28905;DHT22;60848;53.884;11.446;2022-12-07T04:28:16;9.80;62.70
28905;DHT22;60848;53.884;11.446;2022-12-07T04:30:45;9.70;62.60
28905;DHT22;60848;53.884;11.446;2022-12-07T04:33:14;9.70;62.80
28905;DHT22;60848;53.884;11.446;2022-12-07T04:35:42;9.60;63.00
28905;DHT22;60848;53.884;11.446;2022-12-07T04:38:12;9.60;63.40
28905;DHT22;60848;53.884;11.446;2022-12-07T04:40:41;9.60;63.20
28905;DHT22;60848;53.884;11.446;2022-12-07T04:43:09;9.70;63.10
28905;DHT22;60848;53.884;11.446;2022-12-07T04:45:37;9.80;62.90
28905;DHT22;60848;53.884;11.446;2022-12-07T04:48:06;9.90;62.80
28905;DHT22;60848;53.884;11.446;2022-12-07T04:50:35;9.80;62.70
28905;DHT22;60848;53.884;11.446;2022-12-07T04:53:13;9.80;62.90
28905;DHT22;60848;53.884;11.446;2022-12-07T04:55:41;9.80;62.90
28905;DHT22;60848;53.884;11.446;2022-12-07T04:58:10;9.80;63.00
28905;DHT22;60848;53.884;11.446;2022-12-07T05:00:39;9.70;63.00
28905;DHT22;60848;53.884;11.446;2022-12-07T05:03:07;9.70;63.10
28905;DHT22;60848;53.884;11.446;2022-12-07T05:05:39;9.70;63.20
28905;DHT22;60848;53.884;11.446;2022-12-07T05:08:07;9.70;63.20
28905;DHT22;60848;53.884;11.446;2022-12-07T05:10:37;9.70;63.20
28905;DHT22;60848;53.884;11.446;2022-12-07T05:13:06;9.60;63.40
28905;DHT22;60848;53.884;11.446;2022-12-07T05:15:34;9.50;63.60
28905;DHT22;60848;53.884;11.446;2022-12-07T05:18:03;9.50;63.90
28905;DHT22;60848;53.884;11.446;2022-12-07T05:20:31;9.50;64.00
28905;DHT22;60848;53.884;11.446;2022-12-07T05:23:08;9.50;64.00
28905;DHT22;60848;53.884;11.446;2022-12-07T05:25:38;9.60;63.60
28905;DHT22;60848;53.884;11.446;2022-12-07T05:28:06;9.60;63.60
28905;DHT22;60848;53.884;11.446;2022-12-07T05:30:35;9.70;63.40
28905;DHT22;60848;53.884;11.446;2022-12-07T05:33:03;9.70;63.30
28905;DHT22;60848;53.884;11.446;2022-12-07T05:35:32;9.60;63.30
28905;DHT22;60848;53.884;11.446;2022-12-07T05:38:00;9.70;63.20
28905;DHT22;60848;53.884;11.446;2022-12-07T05:40:29;9.60;63.00
28905;DHT22;60848;53.884;11.446;2022-12-07T05:42:58;9.60;63.10
28905;DHT22;60848;53.884;11.446;2022-12-07T05:45:33;9.50;63.10
28905;DHT22;60848;53.884;11.446;2022-12-07T05:48:02;9.60;63.10
28905;DHT22;60848;53.884;11.446;2022-12-07T05:50:30;9.60;62.90
28905;DHT22;60848;53.884;11.446;2022-12-07T05:53:01;9.70;62.90
28905;DHT22;60848;53.884;11.446;2022-12-07T05:55:32;9.70;62.80
28905;DHT22;60848;53.884;11.446;2022-12-07T05:58:02;9.70;62.70
28905;DHT22;60848;53.884;11.446;2022-12-07T06:00:49;9.70;62.70
28905;DHT22;60848;53.884;11.446;2022-12-07T06:03:18;9.70;62.90
28905;DHT22;60848;53.884;11.446;2022-12-07T06:05:46;9.70;62.90
28905;DHT22;60848;53.884;11.446;2022-12-07T06:08:15;9.70;62.70
28905;DHT22;60848;53.884;11.446;2022-12-07T06:10:44;9.80;62.60
28905;DHT22;60848;53.884;11.446;2022-12-07T06:13:14;9.80;62.60
28905;DHT22;60848;53.884;11.446;2022-12-07T06:15:41;9.70;62.60
28905;DHT22;60848;53.884;11.446;2022-12-07T06:18:09;9.80;62.50
28905;DHT22;60848;53.884;11.446;2022-12-07T06:20:38;9.80;62.30
28905;DHT22;60848;53.884;11.446;2022-12-07T06:23:06;9.80;62.20
28905;DHT22;60848;53.884;11.446;2022-12-07T06:25:34;9.80;62.00
28905;DHT22;60848;53.884;11.446;2022-12-07T06:28:03;9.80;62.00
28905;DHT22;60848;53.884;11.446;2022-12-07T06:30:33;9.80;61.90
28905;DHT22;60848;53.884;11.446;2022-12-07T06:33:01;9.90;61.90
28905;DHT22;60848;53.884;11.446;2022-12-07T06:35:29;9.90;62.00
28905;DHT22;60848;53.884;11.446;2022-12-07T06:38:00;9.90;61.80
28905;DHT22;60848;53.884;11.446;2022-12-07T06:40:28;10.00;61.70
28905;DHT22;60848;53.884;11.446;2022-12-07T06:42:56;9.90;61.60
28905;DHT22;60848;53.884;11.446;2022-12-07T06:45:27;9.90;61.70
28905;DHT22;60848;53.884;11.446;2022-12-07T06:48:00;9.90;61.50
28905;DHT22;60848;53.884;11.446;2022-12-07T06:50:28;10.00;61.50
28905;DHT22;60848;53.884;11.446;2022-12-07T06:52:57;9.90;61.40
28905;DHT22;60848;53.884;11.446;2022-12-07T06:55:27;9.90;61.40
28905;DHT22;60848;53.884;11.446;2022-12-07T06:57:58;9.90;61.50
28905;DHT22;60848;53.884;11.446;2022-12-07T07:00:30;9.80;61.40
28905;DHT22;60848;53.884;11.446;2022-12-07T07:03:01;9.70;61.40
28905;DHT22;60848;53.884;11.446;2022-12-07T07:05:29;9.60;61.60
28905;DHT22;60848;53.884;11.446;2022-12-07T07:07:58;9.50;61.50
28905;DHT22;60848;53.884;11.446;2022-12-07T07:10:46;9.50;61.40
28905;DHT22;60848;53.884;11.446;2022-12-07T07:13:14;9.40;61.30
28905;DHT22;60848;53.884;11.446;2022-12-07T07:15:43;9.30;61.30
28905;DHT22;60848;53.884;11.446;2022-12-07T07:18:13;9.20;61.30
28905;DHT22;60848;53.884;11.446;2022-12-07T07:20:41;9.20;61.40
28905;DHT22;60848;53.884;11.446;2022-12-07T07:23:10;9.20;61.30
28905;DHT22;60848;53.884;11.446;2022-12-07T07:25:38;9.00;61.30
28905;DHT22;60848;53.884;11.446;2022-12-07T07:28:07;8.90;61.40
28905;DHT22;60848;53.884;11.446;2022-12-07T07:30:35;8.90;61.50
28905;DHT22;60848;53.884;11.446;2022-12-07T07:33:07;9.00;61.50
28905;DHT22;60848;53.884;11.446;2022-12-07T07:35:37;9.20;60.50
28905;DHT22;60848;53.884;11.446;2022-12-07T07:38:06;9.20;60.00
28905;DHT22;60848;53.884;11.446;2022-12-07T07:40:34;9.10;59.90
28905;DHT22;60848;53.884;11.446;2022-12-07T07:43:02;9.00;59.90
28905;DHT22;60848;53.884;11.446;2022-12-07T07:45:30;9.00;59.90
28905;DHT22;60848;53.884;11.446;2022-12-07T07:47:59;9.00;59.90
28905;DHT22;60848;53.884;11.446;2022-12-07T07:50:27;9.00;60.40
28905;DHT22;60848;53.884;11.446;2022-12-07T07:52:57;9.10;60.00
28905;DHT22;60848;53.884;11.446;2022-12-07T07:55:26;9.20;60.00
28905;DHT22;60848;53.884;11.446;2022-12-07T07:57:54;9.30;59.60
28905;DHT22;60848;53.884;11.446;2022-12-07T08:00:22;9.40;59.50
28905;DHT22;60848;53.884;11.446;2022-12-07T08:02:50;9.50;59.50
28905;DHT22;60848;53.884;11.446;2022-12-07T08:05:19;9.60;59.10
28905;DHT22;60848;53.884;11.446;2022-12-07T08:07:47;9.70;59.10
28905;DHT22;60848;53.884;11.446;2022-12-07T08:10:20;9.80;58.80
28905;DHT22;60848;53.884;11.446;2022-12-07T08:12:48;9.90;58.50
28905;DHT22;60848;53.884;11.446;2022-12-07T08:15:36;9.90;57.90
28905;DHT22;60848;53.884;11.446;2022-12-07T08:18:05;9.80;57.40
28905;DHT22;60848;53.884;11.446;2022-12-07T08:20:34;9.70;57.70
28905;DHT22;60848;53.884;11.446;2022-12-07T08:23:03;9.60;57.90
28905;DHT22;60848;53.884;11.446;2022-12-07T08:25:32;9.60;59.20
28905;DHT22;60848;53.884;11.446;2022-12-07T08:28:01;9.60;59.30
28905;DHT22;60848;53.884;11.446;2022-12-07T08:30:29;9.40;58.80
28905;DHT22;60848;53.884;11.446;2022-12-07T08:32:58;9.30;58.80
28905;DHT22;60848;53.884;11.446;2022-12-07T08:35:26;9.20;58.80
28905;DHT22;60848;53.884;11.446;2022-12-07T08:37:54;9.00;58.80
28905;DHT22;60848;53.884;11.446;2022-12-07T08:40:24;9.00;59.40
28905;DHT22;60848;53.884;11.446;2022-12-07T08:42:54;9.00;59.30
28905;DHT22;60848;53.884;11.446;2022-12-07T08:45:22;9.00;59.50
28905;DHT22;60848;53.884;11.446;2022-12-07T08:47:54;9.10;59.70
28905;DHT22;60848;53.884;11.446;2022-12-07T08:50:23;9.40;59.90
28905;DHT22;60848;53.884;11.446;2022-12-07T08:52:52;9.60;59.60
28905;DHT22;60848;53.884;11.446;2022-12-07T08:55:22;9.90;59.00
28905;DHT22;60848;53.884;11.446;2022-12-07T08:57:50;10.20;58.40
28905;DHT22;60848;53.884;11.446;2022-12-07T09:00:21;10.40;58.10
28905;DHT22;60848;53.884;11.446;2022-12-07T09:02:49;10.70;57.90
28905;DHT22;60848;53.884;11.446;2022-12-07T09:05:17;10.90;57.40
28905;DHT22;60848;53.884;11.446;2022-12-07T09:07:47;11.10;56.60
28905;DHT22;60848;53.884;11.446;2022-12-07T09:10:17;11.20;56.00
28905;DHT22;60848;53.884;11.446;2022-12-07T09:12:47;11.20;55.60
28905;DHT22;60848;53.884;11.446;2022-12-07T09:15:16;11.20;55.20
28905;DHT22;60848;53.884;11.446;2022-12-07T09:17:45;11.30;55.10
28905;DHT22;60848;53.884;11.446;2022-12-07T09:20:14;11.30;54.80
28905;DHT22;60848;53.884;11.446;2022-12-07T09:22:42;11.20;54.70
28905;DHT22;60848;53.884;11.446;2022-12-07T09:25:10;11.10;54.50
28905;DHT22;60848;53.884;11.446;2022-12-07T09:27:38;11.10;54.30
28905;DHT22;60848;53.884;11.446;2022-12-07T09:30:07;10.90;54.10
28905;DHT22;60848;53.884;11.446;2022-12-07T09:32:35;10.80;54.40
28905;DHT22;60848;53.884;11.446;2022-12-07T09:35:06;10.80;54.70
28905;DHT22;60848;53.884;11.446;2022-12-07T09:37:34;10.90;54.70
28905;DHT22;60848;53.884;11.446;2022-12-07T09:40:03;10.90;54.40
28905;DHT22;60848;53.884;11.446;2022-12-07T09:42:34;10.90;54.00
28905;DHT22;60848;53.884;11.446;2022-12-07T09:45:06;10.70;53.80
28905;DHT22;60848;53.884;11.446;2022-12-07T09:47:35;10.70;54.10
28905;DHT22;60848;53.884;11.446;2022-12-07T09:50:11;10.60;54.40
28905;DHT22;60848;53.884;11.446;2022-12-07T09:52:42;10.50;54.80
28905;DHT22;60848;53.884;11.446;2022-12-07T09:55:14;10.50;55.10
28905;DHT22;60848;53.884;11.446;2022-12-07T09:57:43;10.40;55.10
28905;DHT22;60848;53.884;11.446;2022-12-07T10:00:13;10.40;55.10
28905;DHT22;60848;53.884;11.446;2022-12-07T10:02:47;10.30;55.20
28905;DHT22;60848;53.884;11.446;2022-12-07T10:05:22;10.40;55.20
28905;DHT22;60848;53.884;11.446;2022-12-07T10:07:52;10.30;55.10
28905;DHT22;60848;53.884;11.446;2022-12-07T10:10:24;10.30;55.00
28905;DHT22;60848;53.884;11.446;2022-12-07T10:12:58;10.30;55.10
28905;DHT22;60848;53.884;11.446;2022-12-07T10:15:45;10.30;55.20
28905;DHT22;60848;53.884;11.446;2022-12-07T10:18:33;10.30;55.20
28905;DHT22;60848;53.884;11.446;2022-12-07T10:21:10;10.40;55.20
28905;DHT22;60848;53.884;11.446;2022-12-07T10:23:40;10.40;55.00
28905;DHT22;60848;53.884;11.446;2022-12-07T10:26:25;10.40;54.60
28905;DHT22;60848;53.884;11.446;2022-12-07T10:28:55;10.40;54.30
28905;DHT22;60848;53.884;11.446;2022-12-07T10:31:24;10.40;53.90
28905;DHT22;60848;53.884;11.446;2022-12-07T10:33:53;10.40;53.80
28905;DHT22;60848;53.884;11.446;2022-12-07T10:36:24;10.40;53.50
28905;DHT22;60848;53.884;11.446;2022-12-07T10:38:53;10.40;53.40
28905;DHT22;60848;53.884;11.446;2022-12-07T10:41:26;10.50;53.30
28905;DHT22;60848;53.884;11.446;2022-12-07T10:43:55;10.40;52.90
28905;DHT22;60848;53.884;11.446;2022-12-07T10:49:17;10.40;52.70
28905;DHT22;60848;53.884;11.446;2022-12-07T10:51:53;10.30;52.10
28905;DHT22;60848;53.884;11.446;2022-12-07T10:54:24;10.20;52.00
28905;DHT22;60848;53.884;11.446;2022-12-07T10:57:02;10.20;51.70
28905;DHT22;60848;53.884;11.446;2022-12-07T11:02:33;10.20;52.10
28905;DHT22;60848;53.884;11.446;2022-12-07T11:05:07;10.20;51.40
28905;DHT22;60848;53.884;11.446;2022-12-07T11:07:44;10.20;51.50
28905;DHT22;60848;53.884;11.446;2022-12-07T11:10:22;10.20;51.50
28905;DHT22;60848;53.884;11.446;2022-12-07T11:13:07;10.20;51.30
28905;DHT22;60848;53.884;11.446;2022-12-07T11:15:42;10.30;51.30
28905;DHT22;60848;53.884;11.446;2022-12-07T11:18:18;10.30;51.30
28905;DHT22;60848;53.884;11.446;2022-12-07T11:20:51;10.30;51.20
28905;DHT22;60848;53.884;11.446;2022-12-07T11:23:24;10.30;50.90
28905;DHT22;60848;53.884;11.446;2022-12-07T11:25:58;10.20;51.00
28905;DHT22;60848;53.884;11.446;2022-12-07T11:28:35;10.20;51.10
28905;DHT22;60848;53.884;11.446;2022-12-07T11:31:08;10.20;51.00
28905;DHT22;60848;53.884;11.446;2022-12-07T11:33:39;10.20;50.80
28905;DHT22;60848;53.884;11.446;2022-12-07T11:36:13;10.20;50.90
28905;DHT22;60848;53.884;11.446;2022-12-07T11:38:47;10.30;50.70
28905;DHT22;60848;53.884;11.446;2022-12-07T11:41:18;10.30;50.50
28905;DHT22;60848;53.884;11.446;2022-12-07T11:43:55;10.40;50.60
28905;DHT22;60848;53.884;11.446;2022-12-07T11:46:27;10.40;50.40
28905;DHT22;60848;53.884;11.446;2022-12-07T11:48:58;10.40;50.20
28905;DHT22;60848;53.884;11.446;2022-12-07T11:51:30;10.40;49.80
28905;DHT22;60848;53.884;11.446;2022-12-07T11:54:03;10.50;49.80
28905;DHT22;60848;53.884;11.446;2022-12-07T11:56:34;10.50;49.50
28905;DHT22;60848;53.884;11.446;2022-12-07T11:59:07;10.50;49.50
28905;DHT22;60848;53.884;11.446;2022-12-07T12:01:47;10.70;49.60
28905;DHT22;60848;53.884;11.446;2022-12-07T12:04:21;10.80;49.20
28905;DHT22;60848;53.884;11.446;2022-12-07T12:06:51;10.90;48.80
28905;DHT22;60848;53.884;11.446;2022-12-07T12:09:23;10.90;48.40
28905;DHT22;60848;53.884;11.446;2022-12-07T12:12:33;10.90;48.10
28905;DHT22;60848;53.884;11.446;2022-12-07T12:15:36;10.80;47.60
28905;DHT22;60848;53.884;11.446;2022-12-07T12:21:02;10.70;47.40
28905;DHT22;60848;53.884;11.446;2022-12-07T12:23:35;10.70;47.30
28905;DHT22;60848;53.884;11.446;2022-12-07T12:26:06;10.70;46.90
28905;DHT22;60848;53.884;11.446;2022-12-07T12:28:38;10.70;46.80
28905;DHT22;60848;53.884;11.446;2022-12-07T12:31:16;10.60;46.60
28905;DHT22;60848;53.884;11.446;2022-12-07T12:33:45;10.60;46.40
28905;DHT22;60848;53.884;11.446;2022-12-07T12:36:18;10.50;46.40
28905;DHT22;60848;53.884;11.446;2022-12-07T12:38:48;10.50;46.60
28905;DHT22;60848;53.884;11.446;2022-12-07T12:44:08;10.50;46.30
28905;DHT22;60848;53.884;11.446;2022-12-07T12:46:56;10.50;46.20
28905;DHT22;60848;53.884;11.446;2022-12-07T12:54:59;10.40;45.90
28905;DHT22;60848;53.884;11.446;2022-12-07T12:57:29;10.30;46.10
28905;DHT22;60848;53.884;11.446;2022-12-07T12:59:59;10.40;46.70
28905;DHT22;60848;53.884;11.446;2022-12-07T13:02:30;10.80;47.70
28905;DHT22;60848;53.884;11.446;2022-12-07T13:05:00;11.10;47.70
28905;DHT22;60848;53.884;11.446;2022-12-07T13:10:43;11.50;47.00
28905;DHT22;60848;53.884;11.446;2022-12-07T13:13:34;11.50;45.80
28905;DHT22;60848;53.884;11.446;2022-12-07T13:16:39;11.30;45.80
28905;DHT22;60848;53.884;11.446;2022-12-07T13:22:41;11.10;46.50
28905;DHT22;60848;53.884;11.446;2022-12-07T13:25:18;11.00;47.00
28905;DHT22;60848;53.884;11.446;2022-12-07T13:27:48;11.00;46.70
28905;DHT22;60848;53.884;11.446;2022-12-07T13:30:20;10.70;45.70
28905;DHT22;60848;53.884;11.446;2022-12-07T13:32:55;10.70;46.20
28905;DHT22;60848;53.884;11.446;2022-12-07T13:35:32;10.70;46.60
28905;DHT22;60848;53.884;11.446;2022-12-07T13:38:13;10.70;46.50
28905;DHT22;60848;53.884;11.446;2022-12-07T13:41:00;10.60;47.30
28905;DHT22;60848;53.884;11.446;2022-12-07T13:43:28;10.60;46.90
28905;DHT22;60848;53.884;11.446;2022-12-07T13:45:56;10.50;46.70
28905;DHT22;60848;53.884;11.446;2022-12-07T13:48:28;10.50;46.90
28905;DHT22;60848;53.884;11.446;2022-12-07T13:50:59;10.40;47.00
28905;DHT22;60848;53.884;11.446;2022-12-07T13:53:28;10.40;47.30
28905;DHT22;60848;53.884;11.446;2022-12-07T13:55:57;10.40;47.50
28905;DHT22;60848;53.884;11.446;2022-12-07T13:58:25;10.40;48.10
28905;DHT22;60848;53.884;11.446;2022-12-07T14:00:57;10.40;48.00
28905;DHT22;60848;53.884;11.446;2022-12-07T14:03:28;10.50;48.00
28905;DHT22;60848;53.884;11.446;2022-12-07T14:06:04;10.60;48.00
28905;DHT22;60848;53.884;11.446;2022-12-07T14:08:32;10.60;47.90
28905;DHT22;60848;53.884;11.446;2022-12-07T14:11:00;10.60;47.60
28905;DHT22;60848;53.884;11.446;2022-12-07T14:13:30;10.50;47.60
28905;DHT22;60848;53.884;11.446;2022-12-07T14:15:58;10.40;47.90
28905;DHT22;60848;53.884;11.446;2022-12-07T14:18:29;10.40;48.00
28905;DHT22;60848;53.884;11.446;2022-12-07T14:21:04;10.40;48.00
28905;DHT22;60848;53.884;11.446;2022-12-07T14:23:32;10.30;47.90
28905;DHT22;60848;53.884;11.446;2022-12-07T14:26:05;10.20;47.80
28905;DHT22;60848;53.884;11.446;2022-12-07T14:28:36;10.20;48.00
28905;DHT22;60848;53.884;11.446;2022-12-07T14:31:08;10.10;48.10
28905;DHT22;60848;53.884;11.446;2022-12-07T14:33:47;10.00;48.20
28905;DHT22;60848;53.884;11.446;2022-12-07T14:36:18;10.00;48.30
28905;DHT22;60848;53.884;11.446;2022-12-07T14:38:46;10.00;48.40
28905;DHT22;60848;53.884;11.446;2022-12-07T14:41:14;9.90;48.50
28905;DHT22;60848;53.884;11.446;2022-12-07T14:44:01;9.80;48.60
28905;DHT22;60848;53.884;11.446;2022-12-07T14:46:49;9.80;48.80
28905;DHT22;60848;53.884;11.446;2022-12-07T14:49:38;9.70;49.00
28905;DHT22;60848;53.884;11.446;2022-12-07T14:52:08;9.70;49.20
28905;DHT22;60848;53.884;11.446;2022-12-07T14:54:57;9.70;49.50
28905;DHT22;60848;53.884;11.446;2022-12-07T14:57:26;9.70;49.40
28905;DHT22;60848;53.884;11.446;2022-12-07T14:59:54;9.70;49.50
28905;DHT22;60848;53.884;11.446;2022-12-07T15:02:22;9.70;49.50
28905;DHT22;60848;53.884;11.446;2022-12-07T15:04:54;9.70;49.60
28905;DHT22;60848;53.884;11.446;2022-12-07T15:07:22;9.60;49.60
28905;DHT22;60848;53.884;11.446;2022-12-07T15:09:50;9.60;49.80
28905;DHT22;60848;53.884;11.446;2022-12-07T15:12:18;9.60;49.80
28905;DHT22;60848;53.884;11.446;2022-12-07T15:14:46;9.60;49.90
28905;DHT22;60848;53.884;11.446;2022-12-07T15:17:14;9.60;50.00
28905;DHT22;60848;53.884;11.446;2022-12-07T15:19:56;9.60;50.10
28905;DHT22;60848;53.884;11.446;2022-12-07T15:22:25;9.60;50.20
28905;DHT22;60848;53.884;11.446;2022-12-07T15:24:53;9.60;50.20
28905;DHT22;60848;53.884;11.446;2022-12-07T15:27:21;9.60;50.30
28905;DHT22;60848;53.884;11.446;2022-12-07T15:29:49;9.60;50.30
28905;DHT22;60848;53.884;11.446;2022-12-07T15:32:19;9.60;50.30
28905;DHT22;60848;53.884;11.446;2022-12-07T15:34:49;9.60;50.40
28905;DHT22;60848;53.884;11.446;2022-12-07T15:37:19;9.60;50.50
28905;DHT22;60848;53.884;11.446;2022-12-07T15:39:47;9.60;50.50
28905;DHT22;60848;53.884;11.446;2022-12-07T15:42:15;9.60;50.60
28905;DHT22;60848;53.884;11.446;2022-12-07T15:44:43;9.50;50.80
28905;DHT22;60848;53.884;11.446;2022-12-07T15:47:29;9.50;50.90
28905;DHT22;60848;53.884;11.446;2022-12-07T15:49:57;9.50;51.10
28905;DHT22;60848;53.884;11.446;2022-12-07T15:52:26;9.50;51.00
28905;DHT22;60848;53.884;11.446;2022-12-07T15:54:55;9.40;51.10
28905;DHT22;60848;53.884;11.446;2022-12-07T15:57:25;9.40;51.10
28905;DHT22;60848;53.884;11.446;2022-12-07T15:59:53;9.40;51.20
28905;DHT22;60848;53.884;11.446;2022-12-07T16:02:24;9.30;51.20
28905;DHT22;60848;53.884;11.446;2022-12-07T16:04:55;9.30;51.30
28905;DHT22;60848;53.884;11.446;2022-12-07T16:07:23;9.30;51.30
28905;DHT22;60848;53.884;11.446;2022-12-07T16:09:52;9.30;51.30
28905;DHT22;60848;53.884;11.446;2022-12-07T16:12:20;9.20;51.30
28905;DHT22;60848;53.884;11.446;2022-12-07T16:14:51;9.30;51.30
28905;DHT22;60848;53.884;11.446;2022-12-07T16:17:21;9.30;51.30